sensor_id;sensor_type;location;lat;lon;timestamp;temperature;humidity
67598;DHT22;62026;39.230;9.122;2022-12-18T00:01:25;14.50;67.70
67598;DHT22;62026;39.230;9.122;2022-12-18T00:03:55;14.40;67.70
67598;DHT22;62026;39.230;9.122;2022-12-18T00:06:22;14.40;67.80
67598;DHT22;62026;39.230;9.122;2022-12-18T00:08:50;14.40;67.90
67598;DHT22;62026;39.230;9.122;2022-12-18T00:11:22;14.40;68.10
67598;DHT22;62026;39.230;9.122;2022-12-18T00:13:50;14.40;68.20
67598;DHT22;62026;39.230;9.122;2022-12-18T00:16:21;14.40;68.20
67598;DHT22;62026;39.230;9.122;2022-12-18T00:18:49;14.40;68.20
67598;DHT22;62026;39.230;9.122;2022-12-18T00:21:17;14.40;68.40
67598;DHT22;62026;39.230;9.122;2022-12-18T00:23:45;14.40;68.40
67598;DHT22;62026;39.230;9.122;2022-12-18T00:26:32;14.40;68.30
67598;DHT22;62026;39.230;9.122;2022-12-18T00:29:12;14.40;68.40
67598;DHT22;62026;39.230;9.122;2022-12-18T00:31:40;14.40;68.60
67598;DHT22;62026;39.230;9.122;2022-12-18T00:34:10;14.40;68.60
67598;DHT22;62026;39.230;9.122;2022-12-18T00:36:40;14.40;68.70
67598;DHT22;62026;39.230;9.122;2022-12-18T00:39:06;14.40;68.60
67598;DHT22;62026;39.230;9.122;2022-12-18T00:41:33;14.40;68.70
67598;DHT22;62026;39.230;9.122;2022-12-18T00:44:19;14.40;68.80
67598;DHT22;62026;39.230;9.122;2022-12-18T00:46:46;14.40;68.80
67598;DHT22;62026;39.230;9.122;2022-12-18T00:49:13;14.40;68.90
67598;DHT22;62026;39.230;9.122;2022-12-18T00:51:41;14.40;68.90
67598;DHT22;62026;39.230;9.122;2022-12-18T00:54:07;14.40;68.90
67598;DHT22;62026;39.230;9.122;2022-12-18T00:56:34;14.40;69.00
67598;DHT22;62026;39.230;9.122;2022-12-18T00:59:01;14.40;69.00
67598;DHT22;62026;39.230;9.122;2022-12-18T01:01:27;14.40;69.00
67598;DHT22;62026;39.230;9.122;2022-12-18T01:03:54;14.40;69.10
67598;DHT22;62026;39.230;9.122;2022-12-18T01:06:20;14.30;69.20
67598;DHT22;62026;39.230;9.122;2022-12-18T01:08:46;14.30;69.20
67598;DHT22;62026;39.230;9.122;2022-12-18T01:11:15;14.30;69.10
67598;DHT22;62026;39.230;9.122;2022-12-18T01:13:44;14.30;69.10
67598;DHT22;62026;39.230;9.122;2022-12-18T01:16:14;14.30;69.00
67598;DHT22;62026;39.230;9.122;2022-12-18T01:18:41;14.30;68.90
67598;DHT22;62026;39.230;9.122;2022-12-18T01:21:10;14.30;68.60
67598;DHT22;62026;39.230;9.122;2022-12-18T01:23:40;14.30;68.50
67598;DHT22;62026;39.230;9.122;2022-12-18T01:26:09;14.20;68.30
67598;DHT22;62026;39.230;9.122;2022-12-18T01:28:38;14.20;68.20
67598;DHT22;62026;39.230;9.122;2022-12-18T01:31:12;14.20;68.00
67598;DHT22;62026;39.230;9.122;2022-12-18T01:33:45;14.10;67.80
67598;DHT22;62026;39.230;9.122;2022-12-18T01:38:53;14.10;67.70
67598;DHT22;62026;39.230;9.122;2022-12-18T01:41:25;14.10;67.70
67598;DHT22;62026;39.230;9.122;2022-12-18T01:47:43;14.00;67.60
67598;DHT22;62026;39.230;9.122;2022-12-18T01:50:25;14.00;67.60
67598;DHT22;62026;39.230;9.122;2022-12-18T01:53:18;14.00;67.70
67598;DHT22;62026;39.230;9.122;2022-12-18T01:55:51;14.00;67.80
67598;DHT22;62026;39.230;9.122;2022-12-18T01:59:03;13.90;67.80
67598;DHT22;62026;39.230;9.122;2022-12-18T02:01:33;14.00;67.90
67598;DHT22;62026;39.230;9.122;2022-12-18T02:04:20;14.00;67.80
67598;DHT22;62026;39.230;9.122;2022-12-18T02:07:17;14.00;67.70
67598;DHT22;62026;39.230;9.122;2022-12-18T02:09:57;14.00;67.80
67598;DHT22;62026;39.230;9.122;2022-12-18T02:12:55;14.00;67.60
67598;DHT22;62026;39.230;9.122;2022-12-18T02:15:36;14.00;67.50
67598;DHT22;62026;39.230;9.122;2022-12-18T02:18:14;13.90;67.40
67598;DHT22;62026;39.230;9.122;2022-12-18T02:26:18;13.80;67.60
67598;DHT22;62026;39.230;9.122;2022-12-18T02:29:10;13.80;67.70
67598;DHT22;62026;39.230;9.122;2022-12-18T02:31:45;13.80;67.70
67598;DHT22;62026;39.230;9.122;2022-12-18T02:34:18;13.70;67.70
67598;DHT22;62026;39.230;9.122;2022-12-18T02:36:46;13.70;68.00
67598;DHT22;62026;39.230;9.122;2022-12-18T02:39:16;13.70;68.10
67598;DHT22;62026;39.230;9.122;2022-12-18T02:41:55;13.70;68.20
67598;DHT22;62026;39.230;9.122;2022-12-18T02:44:23;13.70;68.30
67598;DHT22;62026;39.230;9.122;2022-12-18T02:46:51;13.70;68.30
67598;DHT22;62026;39.230;9.122;2022-12-18T02:49:55;13.70;68.30
67598;DHT22;62026;39.230;9.122;2022-12-18T02:58:43;13.70;68.30
67598;DHT22;62026;39.230;9.122;2022-12-18T03:01:42;13.70;68.40
67598;DHT22;62026;39.230;9.122;2022-12-18T03:04:43;13.70;68.30
67598;DHT22;62026;39.230;9.122;2022-12-18T03:07:21;13.70;68.10
67598;DHT22;62026;39.230;9.122;2022-12-18T03:09:55;13.60;68.30
67598;DHT22;62026;39.230;9.122;2022-12-18T03:12:35;13.60;68.40
67598;DHT22;62026;39.230;9.122;2022-12-18T03:15:20;13.60;68.50
67598;DHT22;62026;39.230;9.122;2022-12-18T03:18:03;13.60;68.50
67598;DHT22;62026;39.230;9.122;2022-12-18T03:20:34;13.60;68.40
67598;DHT22;62026;39.230;9.122;2022-12-18T03:23:09;13.60;68.30
67598;DHT22;62026;39.230;9.122;2022-12-18T03:25:42;13.60;68.30
67598;DHT22;62026;39.230;9.122;2022-12-18T03:28:16;13.60;68.40
67598;DHT22;62026;39.230;9.122;2022-12-18T03:30:51;13.60;68.60
67598;DHT22;62026;39.230;9.122;2022-12-18T03:36:14;13.70;68.60
67598;DHT22;62026;39.230;9.122;2022-12-18T03:38:40;13.60;68.70
67598;DHT22;62026;39.230;9.122;2022-12-18T03:41:35;13.60;68.60
67598;DHT22;62026;39.230;9.122;2022-12-18T03:47:48;13.60;68.60
67598;DHT22;62026;39.230;9.122;2022-12-18T03:50:46;13.60;68.40
67598;DHT22;62026;39.230;9.122;2022-12-18T03:56:26;13.70;67.90
67598;DHT22;62026;39.230;9.122;2022-12-18T03:58:59;13.60;67.70
67598;DHT22;62026;39.230;9.122;2022-12-18T04:01:36;13.60;67.40
67598;DHT22;62026;39.230;9.122;2022-12-18T04:04:06;13.50;67.40
67598;DHT22;62026;39.230;9.122;2022-12-18T04:06:38;13.50;67.30
67598;DHT22;62026;39.230;9.122;2022-12-18T04:09:09;13.50;67.20
67598;DHT22;62026;39.230;9.122;2022-12-18T04:11:40;13.50;66.90
67598;DHT22;62026;39.230;9.122;2022-12-18T04:14:11;13.40;66.60
67598;DHT22;62026;39.230;9.122;2022-12-18T04:16:37;13.40;66.60
67598;DHT22;62026;39.230;9.122;2022-12-18T04:19:05;13.40;66.40
67598;DHT22;62026;39.230;9.122;2022-12-18T04:21:37;13.40;66.30
67598;DHT22;62026;39.230;9.122;2022-12-18T04:24:04;13.40;66.40
67598;DHT22;62026;39.230;9.122;2022-12-18T04:26:32;13.40;66.30
67598;DHT22;62026;39.230;9.122;2022-12-18T04:29:19;13.40;66.40
67598;DHT22;62026;39.230;9.122;2022-12-18T04:31:45;13.30;66.30
67598;DHT22;62026;39.230;9.122;2022-12-18T04:34:11;13.30;66.30
67598;DHT22;62026;39.230;9.122;2022-12-18T04:36:42;13.30;66.40
67598;DHT22;62026;39.230;9.122;2022-12-18T04:39:08;13.20;66.30
67598;DHT22;62026;39.230;9.122;2022-12-18T04:41:34;13.20;66.40
67598;DHT22;62026;39.230;9.122;2022-12-18T04:44:01;13.20;66.50
67598;DHT22;62026;39.230;9.122;2022-12-18T04:46:27;13.10;66.70
67598;DHT22;62026;39.230;9.122;2022-12-18T04:48:53;13.10;67.00
67598;DHT22;62026;39.230;9.122;2022-12-18T04:51:19;13.10;67.00
67598;DHT22;62026;39.230;9.122;2022-12-18T04:53:45;13.00;67.20
67598;DHT22;62026;39.230;9.122;2022-12-18T04:56:12;13.00;67.10
67598;DHT22;62026;39.230;9.122;2022-12-18T04:58:42;13.10;67.20
67598;DHT22;62026;39.230;9.122;2022-12-18T05:01:11;13.00;67.30
67598;DHT22;62026;39.230;9.122;2022-12-18T05:03:38;13.00;67.30
67598;DHT22;62026;39.230;9.122;2022-12-18T05:06:06;13.10;67.40
67598;DHT22;62026;39.230;9.122;2022-12-18T05:08:33;13.10;67.10
67598;DHT22;62026;39.230;9.122;2022-12-18T05:11:08;13.00;67.00
67598;DHT22;62026;39.230;9.122;2022-12-18T05:13:36;13.00;67.00
67598;DHT22;62026;39.230;9.122;2022-12-18T05:16:04;13.00;66.90
67598;DHT22;62026;39.230;9.122;2022-12-18T05:18:31;13.00;66.90
67598;DHT22;62026;39.230;9.122;2022-12-18T05:20:57;13.00;66.90
67598;DHT22;62026;39.230;9.122;2022-12-18T05:23:23;13.00;66.70
67598;DHT22;62026;39.230;9.122;2022-12-18T05:25:58;13.00;66.70
67598;DHT22;62026;39.230;9.122;2022-12-18T05:28:27;13.00;66.60
67598;DHT22;62026;39.230;9.122;2022-12-18T05:30:56;13.00;66.60
67598;DHT22;62026;39.230;9.122;2022-12-18T05:33:26;13.00;66.50
67598;DHT22;62026;39.230;9.122;2022-12-18T05:35:57;13.00;66.40
67598;DHT22;62026;39.230;9.122;2022-12-18T05:38:26;12.90;66.50
67598;DHT22;62026;39.230;9.122;2022-12-18T05:40:53;12.90;66.70
67598;DHT22;62026;39.230;9.122;2022-12-18T05:43:20;12.90;66.70
67598;DHT22;62026;39.230;9.122;2022-12-18T05:45:48;12.80;66.60
67598;DHT22;62026;39.230;9.122;2022-12-18T05:48:15;12.80;66.60
67598;DHT22;62026;39.230;9.122;2022-12-18T05:50:43;12.80;66.70
67598;DHT22;62026;39.230;9.122;2022-12-18T05:53:15;12.80;66.70
67598;DHT22;62026;39.230;9.122;2022-12-18T05:55:43;12.80;66.70
67598;DHT22;62026;39.230;9.122;2022-12-18T05:58:10;12.80;66.70
67598;DHT22;62026;39.230;9.122;2022-12-18T06:00:41;12.70;66.90
67598;DHT22;62026;39.230;9.122;2022-12-18T06:03:10;12.80;66.90
67598;DHT22;62026;39.230;9.122;2022-12-18T06:05:40;12.80;67.10
67598;DHT22;62026;39.230;9.122;2022-12-18T06:08:08;12.80;67.10
67598;DHT22;62026;39.230;9.122;2022-12-18T06:10:34;12.80;67.00
67598;DHT22;62026;39.230;9.122;2022-12-18T06:13:01;12.80;67.10
67598;DHT22;62026;39.230;9.122;2022-12-18T06:15:27;12.80;67.00
67598;DHT22;62026;39.230;9.122;2022-12-18T06:17:53;12.80;66.90
67598;DHT22;62026;39.230;9.122;2022-12-18T06:20:20;12.70;67.00
67598;DHT22;62026;39.230;9.122;2022-12-18T06:22:46;12.70;67.00
67598;DHT22;62026;39.230;9.122;2022-12-18T06:25:12;12.70;67.10
67598;DHT22;62026;39.230;9.122;2022-12-18T06:27:38;12.60;67.20
67598;DHT22;62026;39.230;9.122;2022-12-18T06:30:05;12.60;67.20
67598;DHT22;62026;39.230;9.122;2022-12-18T06:32:31;12.60;67.20
67598;DHT22;62026;39.230;9.122;2022-12-18T06:34:57;12.60;67.30
67598;DHT22;62026;39.230;9.122;2022-12-18T06:37:23;12.60;67.30
67598;DHT22;62026;39.230;9.122;2022-12-18T06:39:53;12.60;67.40
67598;DHT22;62026;39.230;9.122;2022-12-18T06:42:19;12.70;67.30
67598;DHT22;62026;39.230;9.122;2022-12-18T06:44:45;12.70;67.10
67598;DHT22;62026;39.230;9.122;2022-12-18T06:47:11;12.70;67.10
67598;DHT22;62026;39.230;9.122;2022-12-18T06:49:37;12.70;67.10
67598;DHT22;62026;39.230;9.122;2022-12-18T06:52:03;12.70;66.90
67598;DHT22;62026;39.230;9.122;2022-12-18T06:54:29;12.80;66.70
67598;DHT22;62026;39.230;9.122;2022-12-18T06:56:54;12.80;66.70
67598;DHT22;62026;39.230;9.122;2022-12-18T06:59:20;12.80;66.40
67598;DHT22;62026;39.230;9.122;2022-12-18T07:01:46;12.70;66.50
67598;DHT22;62026;39.230;9.122;2022-12-18T07:04:12;12.60;67.10
67598;DHT22;62026;39.230;9.122;2022-12-18T07:06:38;12.60;67.30
67598;DHT22;62026;39.230;9.122;2022-12-18T07:09:04;12.60;67.00
67598;DHT22;62026;39.230;9.122;2022-12-18T07:11:32;12.70;66.80
67598;DHT22;62026;39.230;9.122;2022-12-18T07:13:59;12.80;66.60
67598;DHT22;62026;39.230;9.122;2022-12-18T07:16:25;12.90;66.30
67598;DHT22;62026;39.230;9.122;2022-12-18T07:18:55;13.00;66.10
67598;DHT22;62026;39.230;9.122;2022-12-18T07:21:23;13.10;65.90
67598;DHT22;62026;39.230;9.122;2022-12-18T07:23:50;13.20;65.50
67598;DHT22;62026;39.230;9.122;2022-12-18T07:26:18;13.20;65.30
67598;DHT22;62026;39.230;9.122;2022-12-18T07:28:46;13.30;65.00
67598;DHT22;62026;39.230;9.122;2022-12-18T07:31:15;13.40;64.50
67598;DHT22;62026;39.230;9.122;2022-12-18T07:33:43;13.50;64.20
67598;DHT22;62026;39.230;9.122;2022-12-18T07:36:10;13.50;64.00
67598;DHT22;62026;39.230;9.122;2022-12-18T07:38:37;13.60;63.70
67598;DHT22;62026;39.230;9.122;2022-12-18T07:41:08;13.70;63.30
67598;DHT22;62026;39.230;9.122;2022-12-18T07:43:37;13.70;63.40
67598;DHT22;62026;39.230;9.122;2022-12-18T07:46:03;13.80;63.10
67598;DHT22;62026;39.230;9.122;2022-12-18T07:48:30;13.90;62.90
67598;DHT22;62026;39.230;9.122;2022-12-18T07:51:00;13.90;62.80
67598;DHT22;62026;39.230;9.122;2022-12-18T07:53:32;14.00;62.90
67598;DHT22;62026;39.230;9.122;2022-12-18T07:56:05;14.30;62.20
67598;DHT22;62026;39.230;9.122;2022-12-18T07:58:33;14.30;61.90
67598;DHT22;62026;39.230;9.122;2022-12-18T08:01:11;14.40;62.20
67598;DHT22;62026;39.230;9.122;2022-12-18T08:03:39;14.40;61.90
67598;DHT22;62026;39.230;9.122;2022-12-18T08:06:07;14.40;61.90
67598;DHT22;62026;39.230;9.122;2022-12-18T08:08:35;14.60;62.20
67598;DHT22;62026;39.230;9.122;2022-12-18T08:11:01;15.00;61.90
67598;DHT22;62026;39.230;9.122;2022-12-18T08:13:28;15.00;61.00
67598;DHT22;62026;39.230;9.122;2022-12-18T08:16:07;14.90;61.30
67598;DHT22;62026;39.230;9.122;2022-12-18T08:18:35;14.90;61.50
67598;DHT22;62026;39.230;9.122;2022-12-18T08:21:15;15.00;61.20
67598;DHT22;62026;39.230;9.122;2022-12-18T08:23:44;15.10;61.10
67598;DHT22;62026;39.230;9.122;2022-12-18T08:26:11;15.30;60.80
67598;DHT22;62026;39.230;9.122;2022-12-18T08:28:37;15.60;60.80
67598;DHT22;62026;39.230;9.122;2022-12-18T08:31:04;15.60;60.10
67598;DHT22;62026;39.230;9.122;2022-12-18T08:33:30;15.60;60.40
67598;DHT22;62026;39.230;9.122;2022-12-18T08:35:58;15.60;60.40
67598;DHT22;62026;39.230;9.122;2022-12-18T08:38:25;16.00;60.10
67598;DHT22;62026;39.230;9.122;2022-12-18T08:41:02;16.00;59.70
67598;DHT22;62026;39.230;9.122;2022-12-18T08:43:29;16.00;60.10
67598;DHT22;62026;39.230;9.122;2022-12-18T08:46:14;16.30;59.80
67598;DHT22;62026;39.230;9.122;2022-12-18T08:48:40;16.50;59.40
67598;DHT22;62026;39.230;9.122;2022-12-18T08:51:06;16.50;59.00
67598;DHT22;62026;39.230;9.122;2022-12-18T08:53:35;16.60;58.90
67598;DHT22;62026;39.230;9.122;2022-12-18T08:56:02;16.60;58.80
67598;DHT22;62026;39.230;9.122;2022-12-18T08:58:29;16.80;58.60
67598;DHT22;62026;39.230;9.122;2022-12-18T09:01:03;16.90;58.60
67598;DHT22;62026;39.230;9.122;2022-12-18T09:03:31;17.00;58.10
67598;DHT22;62026;39.230;9.122;2022-12-18T09:05:57;17.20;57.80
67598;DHT22;62026;39.230;9.122;2022-12-18T09:08:23;17.20;57.80
67598;DHT22;62026;39.230;9.122;2022-12-18T09:10:50;17.30;57.90
67598;DHT22;62026;39.230;9.122;2022-12-18T09:13:17;17.40;57.90
67598;DHT22;62026;39.230;9.122;2022-12-18T09:15:51;17.50;57.90
67598;DHT22;62026;39.230;9.122;2022-12-18T09:18:20;18.10;59.20
67598;DHT22;62026;39.230;9.122;2022-12-18T09:20:47;18.50;58.50
67598;DHT22;62026;39.230;9.122;2022-12-18T09:23:13;18.60;57.10
67598;DHT22;62026;39.230;9.122;2022-12-18T09:25:40;18.40;56.60
67598;DHT22;62026;39.230;9.122;2022-12-18T09:28:10;18.20;57.30
67598;DHT22;62026;39.230;9.122;2022-12-18T09:30:42;17.90;57.80
67598;DHT22;62026;39.230;9.122;2022-12-18T09:33:17;17.70;58.30
67598;DHT22;62026;39.230;9.122;2022-12-18T09:35:44;17.60;58.70
67598;DHT22;62026;39.230;9.122;2022-12-18T09:38:13;17.50;58.70
67598;DHT22;62026;39.230;9.122;2022-12-18T09:40:51;17.60;58.80
67598;DHT22;62026;39.230;9.122;2022-12-18T09:46:14;17.50;58.70
67598;DHT22;62026;39.230;9.122;2022-12-18T09:48:48;17.60;59.20
67598;DHT22;62026;39.230;9.122;2022-12-18T09:54:35;17.70;59.40
67598;DHT22;62026;39.230;9.122;2022-12-18T09:57:23;17.70;59.00
67598;DHT22;62026;39.230;9.122;2022-12-18T10:00:25;17.70;59.10
67598;DHT22;62026;39.230;9.122;2022-12-18T10:02:53;17.80;59.00
67598;DHT22;62026;39.230;9.122;2022-12-18T10:08:42;18.10;58.40
67598;DHT22;62026;39.230;9.122;2022-12-18T10:19:41;18.50;58.00
67598;DHT22;62026;39.230;9.122;2022-12-18T10:22:39;18.60;57.70
67598;DHT22;62026;39.230;9.122;2022-12-18T10:25:31;18.60;57.90
67598;DHT22;62026;39.230;9.122;2022-12-18T10:28:13;18.60;57.80
67598;DHT22;62026;39.230;9.122;2022-12-18T10:30:41;18.70;57.60
67598;DHT22;62026;39.230;9.122;2022-12-18T10:33:20;18.70;57.50
67598;DHT22;62026;39.230;9.122;2022-12-18T10:35:52;18.80;57.50
67598;DHT22;62026;39.230;9.122;2022-12-18T10:38:27;18.80;57.60
67598;DHT22;62026;39.230;9.122;2022-12-18T10:43:26;18.70;58.20
67598;DHT22;62026;39.230;9.122;2022-12-18T10:56:27;18.60;58.40
67598;DHT22;62026;39.230;9.122;2022-12-18T10:59:05;18.60;58.30
67598;DHT22;62026;39.230;9.122;2022-12-18T11:01:56;18.60;58.30
67598;DHT22;62026;39.230;9.122;2022-12-18T11:04:24;18.60;58.40
67598;DHT22;62026;39.230;9.122;2022-12-18T11:07:08;18.60;58.20
67598;DHT22;62026;39.230;9.122;2022-12-18T11:09:40;18.60;58.60
67598;DHT22;62026;39.230;9.122;2022-12-18T11:12:16;18.50;58.70
67598;DHT22;62026;39.230;9.122;2022-12-18T11:14:49;18.50;58.90
67598;DHT22;62026;39.230;9.122;2022-12-18T11:17:35;18.60;58.70
67598;DHT22;62026;39.230;9.122;2022-12-18T11:20:07;18.70;58.90
67598;DHT22;62026;39.230;9.122;2022-12-18T11:23:03;18.70;58.90
67598;DHT22;62026;39.230;9.122;2022-12-18T11:25:32;18.50;59.30
67598;DHT22;62026;39.230;9.122;2022-12-18T11:30:49;18.30;59.90
67598;DHT22;62026;39.230;9.122;2022-12-18T11:33:34;18.30;60.00
67598;DHT22;62026;39.230;9.122;2022-12-18T11:36:02;18.30;59.80
67598;DHT22;62026;39.230;9.122;2022-12-18T11:38:37;18.30;59.70
67598;DHT22;62026;39.230;9.122;2022-12-18T11:41:19;18.30;59.90
67598;DHT22;62026;39.230;9.122;2022-12-18T11:43:54;18.30;59.90
67598;DHT22;62026;39.230;9.122;2022-12-18T11:46:34;18.20;59.90
67598;DHT22;62026;39.230;9.122;2022-12-18T11:54:41;18.10;60.20
67598;DHT22;62026;39.230;9.122;2022-12-18T11:57:24;18.10;60.00
67598;DHT22;62026;39.230;9.122;2022-12-18T12:00:04;18.10;60.10
67598;DHT22;62026;39.230;9.122;2022-12-18T12:03:07;18.00;60.70
67598;DHT22;62026;39.230;9.122;2022-12-18T12:20:04;17.90;61.10
67598;DHT22;62026;39.230;9.122;2022-12-18T12:25:29;17.80;61.10
67598;DHT22;62026;39.230;9.122;2022-12-18T12:39:44;17.70;61.10
67598;DHT22;62026;39.230;9.122;2022-12-18T12:42:32;17.70;61.20
67598;DHT22;62026;39.230;9.122;2022-12-18T12:45:33;17.80;60.70
67598;DHT22;62026;39.230;9.122;2022-12-18T12:48:06;17.80;60.40
67598;DHT22;62026;39.230;9.122;2022-12-18T12:50:36;17.80;60.30
67598;DHT22;62026;39.230;9.122;2022-12-18T12:53:09;17.80;60.60
67598;DHT22;62026;39.230;9.122;2022-12-18T12:55:46;17.80;60.60
67598;DHT22;62026;39.230;9.122;2022-12-18T13:12:58;17.70;59.50
67598;DHT22;62026;39.230;9.122;2022-12-18T13:15:43;17.70;59.50
67598;DHT22;62026;39.230;9.122;2022-12-18T13:18:28;17.70;59.90
67598;DHT22;62026;39.230;9.122;2022-12-18T13:31:13;17.60;60.60
67598;DHT22;62026;39.230;9.122;2022-12-18T13:36:47;17.60;60.40
67598;DHT22;62026;39.230;9.122;2022-12-18T13:41:45;17.70;59.80
67598;DHT22;62026;39.230;9.122;2022-12-18T13:44:25;17.70;59.80
67598;DHT22;62026;39.230;9.122;2022-12-18T13:46:52;17.70;60.00
67598;DHT22;62026;39.230;9.122;2022-12-18T13:49:39;17.60;60.20
67598;DHT22;62026;39.230;9.122;2022-12-18T13:52:21;17.60;60.30
67598;DHT22;62026;39.230;9.122;2022-12-18T13:54:54;17.70;60.20
67598;DHT22;62026;39.230;9.122;2022-12-18T13:57:33;17.60;60.40
67598;DHT22;62026;39.230;9.122;2022-12-18T14:00:27;17.60;60.50
67598;DHT22;62026;39.230;9.122;2022-12-18T14:02:55;17.70;60.10
67598;DHT22;62026;39.230;9.122;2022-12-18T14:08:16;17.70;59.40
67598;DHT22;62026;39.230;9.122;2022-12-18T14:10:46;17.70;58.80
67598;DHT22;62026;39.230;9.122;2022-12-18T14:13:31;17.70;58.20
67598;DHT22;62026;39.230;9.122;2022-12-18T14:16:02;17.60;58.40
67598;DHT22;62026;39.230;9.122;2022-12-18T14:18:52;17.60;58.80
67598;DHT22;62026;39.230;9.122;2022-12-18T14:21:23;17.60;59.10
67598;DHT22;62026;39.230;9.122;2022-12-18T14:24:18;17.60;59.10
67598;DHT22;62026;39.230;9.122;2022-12-18T14:26:50;17.60;59.00
67598;DHT22;62026;39.230;9.122;2022-12-18T14:29:29;17.60;59.10
67598;DHT22;62026;39.230;9.122;2022-12-18T14:32:19;17.50;59.10
67598;DHT22;62026;39.230;9.122;2022-12-18T14:34:50;17.60;58.20
67598;DHT22;62026;39.230;9.122;2022-12-18T14:37:24;17.60;58.20
67598;DHT22;62026;39.230;9.122;2022-12-18T14:39:59;17.60;59.60
67598;DHT22;62026;39.230;9.122;2022-12-18T14:42:28;17.60;60.70
67598;DHT22;62026;39.230;9.122;2022-12-18T14:45:57;17.50;60.80
67598;DHT22;62026;39.230;9.122;2022-12-18T14:48:15;17.50;61.20
67598;DHT22;62026;39.230;9.122;2022-12-18T14:51:37;17.50;61.50
67598;DHT22;62026;39.230;9.122;2022-12-18T14:53:59;17.50;61.40
67598;DHT22;62026;39.230;9.122;2022-12-18T14:56:31;17.50;61.60
67598;DHT22;62026;39.230;9.122;2022-12-18T14:59:04;17.50;61.70
67598;DHT22;62026;39.230;9.122;2022-12-18T15:07:15;17.40;61.80
67598;DHT22;62026;39.230;9.122;2022-12-18T15:09:44;17.40;62.20
67598;DHT22;62026;39.230;9.122;2022-12-18T15:26:04;17.30;62.90
67598;DHT22;62026;39.230;9.122;2022-12-18T15:28:49;17.30;63.00
67598;DHT22;62026;39.230;9.122;2022-12-18T15:33:59;17.20;63.30
67598;DHT22;62026;39.230;9.122;2022-12-18T15:36:27;17.20;63.60
67598;DHT22;62026;39.230;9.122;2022-12-18T15:38:55;17.20;63.60
67598;DHT22;62026;39.230;9.122;2022-12-18T15:41:23;17.20;63.70
67598;DHT22;62026;39.230;9.122;2022-12-18T15:43:51;17.30;63.80
67598;DHT22;62026;39.230;9.122;2022-12-18T15:46:25;17.20;64.20
67598;DHT22;62026;39.230;9.122;2022-12-18T15:48:53;17.20;64.10
67598;DHT22;62026;39.230;9.122;2022-12-18T15:51:27;17.10;64.50
67598;DHT22;62026;39.230;9.122;2022-12-18T15:53:55;17.10;64.60
67598;DHT22;62026;39.230;9.122;2022-12-18T15:56:22;17.20;64.50
67598;DHT22;62026;39.230;9.122;2022-12-18T15:59:17;17.20;64.50
67598;DHT22;62026;39.230;9.122;2022-12-18T16:01:49;17.20;64.90
67598;DHT22;62026;39.230;9.122;2022-12-18T16:04:19;17.20;64.80
67598;DHT22;62026;39.230;9.122;2022-12-18T16:06:47;17.20;65.10
67598;DHT22;62026;39.230;9.122;2022-12-18T16:09:13;17.20;65.20
67598;DHT22;62026;39.230;9.122;2022-12-18T16:11:41;17.10;65.50
67598;DHT22;62026;39.230;9.122;2022-12-18T16:14:25;17.10;66.00
67598;DHT22;62026;39.230;9.122;2022-12-18T16:16:55;17.10;66.10
67598;DHT22;62026;39.230;9.122;2022-12-18T16:19:23;17.10;66.20
67598;DHT22;62026;39.230;9.122;2022-12-18T16:21:51;17.10;66.30
67598;DHT22;62026;39.230;9.122;2022-12-18T16:24:25;17.10;66.60
67598;DHT22;62026;39.230;9.122;2022-12-18T16:26:58;17.10;66.70
67598;DHT22;62026;39.230;9.122;2022-12-18T16:29:25;17.10;66.70
67598;DHT22;62026;39.230;9.122;2022-12-18T16:31:57;17.10;67.00
67598;DHT22;62026;39.230;9.122;2022-12-18T16:34:29;17.00;67.10
67598;DHT22;62026;39.230;9.122;2022-12-18T16:36:57;17.00;67.30
67598;DHT22;62026;39.230;9.122;2022-12-18T16:39:27;17.00;67.60
67598;DHT22;62026;39.230;9.122;2022-12-18T16:41:53;17.00;67.70
67598;DHT22;62026;39.230;9.122;2022-12-18T16:44:20;17.00;67.70
67598;DHT22;62026;39.230;9.122;2022-12-18T16:46:46;17.00;67.70
67598;DHT22;62026;39.230;9.122;2022-12-18T16:49:15;16.90;68.10
67598;DHT22;62026;39.230;9.122;2022-12-18T16:51:42;16.90;68.10
67598;DHT22;62026;39.230;9.122;2022-12-18T16:54:09;16.90;68.10
67598;DHT22;62026;39.230;9.122;2022-12-18T16:56:35;17.00;68.10
67598;DHT22;62026;39.230;9.122;2022-12-18T16:59:02;16.90;68.20
67598;DHT22;62026;39.230;9.122;2022-12-18T17:01:30;16.90;68.30
67598;DHT22;62026;39.230;9.122;2022-12-18T17:03:59;16.90;68.30
67598;DHT22;62026;39.230;9.122;2022-12-18T17:06:29;17.00;68.40
67598;DHT22;62026;39.230;9.122;2022-12-18T17:08:58;16.90;68.40
67598;DHT22;62026;39.230;9.122;2022-12-18T17:11:31;16.90;68.50
67598;DHT22;62026;39.230;9.122;2022-12-18T17:13:58;16.90;68.70
67598;DHT22;62026;39.230;9.122;2022-12-18T17:16:25;16.90;68.90
67598;DHT22;62026;39.230;9.122;2022-12-18T17:18:52;16.90;68.90
67598;DHT22;62026;39.230;9.122;2022-12-18T17:21:19;16.90;69.00
67598;DHT22;62026;39.230;9.122;2022-12-18T17:23:45;16.90;69.00
67598;DHT22;62026;39.230;9.122;2022-12-18T17:26:11;16.90;69.10
67598;DHT22;62026;39.230;9.122;2022-12-18T17:28:39;16.90;69.20
67598;DHT22;62026;39.230;9.122;2022-12-18T17:31:11;16.80;69.20
67598;DHT22;62026;39.230;9.122;2022-12-18T17:33:42;16.80;69.00
67598;DHT22;62026;39.230;9.122;2022-12-18T17:36:08;16.80;69.00
67598;DHT22;62026;39.230;9.122;2022-12-18T17:38:35;16.70;68.90
67598;DHT22;62026;39.230;9.122;2022-12-18T17:41:02;16.70;69.00
67598;DHT22;62026;39.230;9.122;2022-12-18T17:43:29;16.70;68.80
67598;DHT22;62026;39.230;9.122;2022-12-18T17:46:00;16.70;68.90
67598;DHT22;62026;39.230;9.122;2022-12-18T17:48:27;16.60;68.90
67598;DHT22;62026;39.230;9.122;2022-12-18T17:51:04;16.60;69.00
67598;DHT22;62026;39.230;9.122;2022-12-18T17:53:32;16.60;69.00
67598;DHT22;62026;39.230;9.122;2022-12-18T17:55:59;16.50;69.00
67598;DHT22;62026;39.230;9.122;2022-12-18T17:58:28;16.50;69.20
67598;DHT22;62026;39.230;9.122;2022-12-18T18:00:54;16.50;69.20
67598;DHT22;62026;39.230;9.122;2022-12-18T18:03:20;16.50;69.30
67598;DHT22;62026;39.230;9.122;2022-12-18T18:05:46;16.50;69.40
67598;DHT22;62026;39.230;9.122;2022-12-18T18:08:12;16.50;69.40
67598;DHT22;62026;39.230;9.122;2022-12-18T18:10:39;16.50;69.40
67598;DHT22;62026;39.230;9.122;2022-12-18T18:13:19;16.50;69.00
67598;DHT22;62026;39.230;9.122;2022-12-18T18:16:07;16.40;68.60
67598;DHT22;62026;39.230;9.122;2022-12-18T18:18:34;16.40;68.40
67598;DHT22;62026;39.230;9.122;2022-12-18T18:21:04;16.40;68.20
67598;DHT22;62026;39.230;9.122;2022-12-18T18:23:32;16.30;68.30
67598;DHT22;62026;39.230;9.122;2022-12-18T18:26:06;16.30;68.20
67598;DHT22;62026;39.230;9.122;2022-12-18T18:28:34;16.30;68.30
67598;DHT22;62026;39.230;9.122;2022-12-18T18:31:05;16.20;68.40
67598;DHT22;62026;39.230;9.122;2022-12-18T18:33:33;16.20;68.40